createdAt,value
2019-03-13T00:02:10.091Z,6.80
2019-03-13T00:04:40.570Z,6.00
2019-03-13T00:07:11.594Z,4.73
2019-03-13T00:09:42.157Z,4.90
2019-03-13T00:12:12.689Z,4.07
2019-03-13T00:14:43.408Z,4.20
2019-03-13T00:17:13.954Z,4.50
2019-03-13T00:19:45.987Z,4.80
2019-03-13T00:22:16.519Z,4.30
2019-03-13T00:24:47.185Z,4.33
2019-03-13T00:27:17.651Z,4.40
2019-03-13T00:29:48.173Z,4.13
2019-03-13T00:32:18.666Z,4.63
2019-03-13T00:34:49.379Z,4.53
2019-03-13T00:37:19.906Z,4.73
2019-03-13T00:39:50.564Z,3.98
2019-03-13T00:42:21.172Z,3.73
2019-03-13T00:44:51.754Z,3.40
2019-03-13T00:47:22.042Z,3.70
2019-03-13T00:49:54.217Z,3.70
2019-03-13T00:52:24.521Z,3.87
2019-03-13T00:54:56.407Z,3.98
2019-03-13T00:57:26.719Z,3.27
2019-03-13T01:00:03.501Z,2.90
2019-03-13T01:02:36.550Z,2.90
2019-03-13T01:05:38.605Z,3.00
2019-03-13T01:08:08.943Z,2.80
2019-03-13T01:10:39.374Z,2.80
2019-03-13T01:13:10.050Z,2.87
2019-03-13T01:15:40.423Z,2.80
2019-03-13T01:18:16.089Z,2.70
2019-03-13T01:20:46.049Z,2.60
2019-03-13T01:23:16.344Z,2.30
2019-03-13T01:25:46.832Z,2.27
2019-03-13T01:28:19.592Z,2.00
2019-03-13T01:30:58.450Z,1.83
2019-03-13T01:33:30.582Z,1.70
2019-03-13T01:36:02.923Z,2.20
2019-03-13T01:38:33.525Z,1.70
2019-03-13T01:41:05.415Z,1.80
2019-03-13T01:43:36.642Z,1.60
2019-03-13T01:46:06.922Z,1.83
2019-03-13T01:48:39.027Z,1.55
2019-03-13T01:51:09.601Z,2.03
2019-03-13T01:53:40.804Z,1.62
2019-03-13T01:56:11.135Z,1.57
2019-03-13T01:58:43.545Z,1.50
2019-03-13T02:01:15.269Z,1.30
2019-03-13T02:03:45.595Z,1.30
2019-03-13T02:06:17.183Z,1.40
2019-03-13T02:08:47.831Z,1.33
2019-03-13T02:11:18.380Z,1.40
2019-03-13T02:13:48.911Z,1.53
2019-03-13T02:16:19.209Z,1.50
2019-03-13T02:18:51.469Z,1.50
2019-03-13T02:21:22.293Z,1.50
2019-03-13T02:23:52.898Z,1.47
2019-03-13T02:26:23.479Z,1.52
2019-03-13T02:28:54.004Z,1.40
2019-03-13T02:31:24.621Z,1.65
2019-03-13T02:33:54.938Z,1.70
2019-03-13T02:36:26.773Z,1.70
2019-03-13T02:38:57.184Z,1.80
2019-03-13T02:41:28.053Z,1.60
2019-03-13T02:43:58.415Z,1.77
2019-03-13T02:46:30.322Z,1.70
2019-03-13T02:49:00.710Z,1.30
2019-03-13T02:51:32.039Z,1.26
2019-03-13T02:54:02.675Z,1.23
2019-03-13T02:56:34.219Z,1.40
2019-03-13T02:59:04.558Z,1.63
2019-03-13T03:01:40.175Z,1.20
2019-03-13T03:04:11.660Z,1.70
2019-03-13T03:06:42.339Z,1.82
2019-03-13T03:09:12.773Z,1.20
2019-03-13T03:11:44.439Z,1.50
2019-03-13T03:14:15.072Z,1.97
2019-03-13T03:16:45.348Z,1.70
2019-03-13T03:19:15.930Z,1.72
2019-03-13T03:21:46.546Z,1.73
2019-03-13T03:24:18.084Z,1.77
2019-03-13T03:26:48.401Z,1.70
2019-03-13T03:29:20.933Z,2.10
2019-03-13T03:31:51.391Z,1.83
2019-03-13T03:34:23.009Z,1.60
2019-03-13T03:36:53.316Z,1.87
2019-03-13T03:39:23.642Z,1.60
2019-03-13T03:41:54.283Z,1.87
2019-03-13T03:44:24.575Z,1.70
2019-03-13T03:46:55.131Z,2.33
2019-03-13T03:49:25.426Z,1.53
2019-03-13T03:51:55.743Z,2.03
2019-03-13T03:54:26.023Z,2.00
2019-03-13T03:56:56.904Z,2.10
2019-03-13T03:59:27.165Z,1.60
2019-03-13T04:01:57.785Z,1.93
2019-03-13T04:04:28.409Z,1.80
2019-03-13T04:06:59.108Z,1.67
2019-03-13T04:09:29.996Z,1.70
2019-03-13T04:12:00.932Z,1.80
2019-03-13T04:14:31.268Z,2.13
2019-03-13T04:17:01.652Z,2.23
2019-03-13T04:19:32.229Z,1.50
2019-03-13T04:22:02.579Z,1.80
2019-03-13T04:24:33.108Z,2.07
2019-03-13T04:27:03.671Z,2.40
2019-03-13T04:29:34.649Z,1.70
2019-03-13T04:32:06.066Z,2.50
2019-03-13T04:34:36.381Z,1.97
2019-03-13T04:37:06.956Z,2.15
2019-03-13T04:39:37.245Z,1.90
2019-03-13T04:42:09.462Z,2.07
2019-03-13T04:44:39.739Z,2.27
2019-03-13T04:47:10.413Z,1.90
2019-03-13T04:49:40.679Z,2.03
2019-03-13T04:52:11.121Z,1.90
2019-03-13T04:54:41.738Z,1.97
2019-03-13T04:57:12.073Z,1.90
2019-03-13T04:59:42.479Z,2.13
2019-03-13T05:02:12.792Z,1.80
2019-03-13T05:04:43.126Z,2.20
2019-03-13T05:07:13.750Z,1.97
2019-03-13T05:09:44.032Z,2.20
2019-03-13T05:12:16.767Z,2.37
2019-03-13T05:14:48.283Z,1.90
2019-03-13T05:17:18.593Z,1.90
2019-03-13T05:19:48.866Z,2.33
2019-03-13T05:22:21.459Z,2.62
2019-03-13T05:24:51.426Z,2.40
2019-03-13T05:27:22.015Z,1.70
2019-03-13T05:29:52.307Z,2.20
2019-03-13T05:32:22.728Z,2.10
2019-03-13T05:34:53.006Z,2.17
2019-03-13T05:37:25.104Z,1.93
2019-03-13T05:39:55.421Z,2.00
2019-03-13T05:42:27.085Z,2.14
2019-03-13T05:44:57.350Z,2.20
2019-03-13T05:47:27.676Z,2.30
2019-03-13T05:49:58.308Z,1.98
2019-03-13T05:52:28.650Z,2.30
2019-03-13T05:54:59.208Z,2.40
2019-03-13T05:57:29.825Z,2.37
2019-03-13T06:00:00.937Z,2.57
2019-03-13T06:02:31.398Z,1.90
2019-03-13T06:05:02.753Z,2.42
2019-03-13T06:07:35.883Z,2.20
2019-03-13T06:10:07.177Z,2.60
2019-03-13T06:12:37.903Z,2.80
2019-03-13T06:15:09.047Z,2.03
2019-03-13T06:17:39.616Z,2.30
2019-03-13T06:20:10.845Z,2.43
2019-03-13T06:22:44.319Z,2.90
2019-03-13T06:25:14.679Z,2.03
2019-03-13T06:27:46.688Z,2.42
2019-03-13T06:30:17.195Z,2.87
2019-03-13T06:32:47.868Z,2.50
2019-03-13T06:35:18.458Z,2.60
2019-03-13T06:37:49.041Z,2.63
2019-03-13T06:40:19.494Z,2.30
2019-03-13T06:42:50.580Z,2.92
2019-03-13T06:45:23.317Z,2.60
2019-03-13T06:47:54.555Z,2.80
2019-03-13T06:50:24.968Z,3.10
2019-03-13T06:52:55.486Z,2.23
2019-03-13T06:55:25.933Z,2.30
2019-03-13T06:57:56.235Z,1.97
2019-03-13T07:00:44.277Z,2.70
2019-03-13T07:03:44.350Z,2.54
2019-03-13T07:06:43.836Z,2.17
2019-03-13T07:09:39.280Z,2.37
2019-03-13T07:12:25.840Z,2.40
2019-03-13T07:15:24.587Z,2.40
2019-03-13T07:18:16.938Z,2.53
2019-03-13T07:20:58.582Z,2.62
2019-03-13T07:23:42.327Z,2.08
2019-03-13T07:26:30.190Z,2.43
2019-03-13T07:29:19.738Z,2.63
2019-03-13T07:32:24.420Z,2.60
2019-03-13T07:35:12.845Z,2.22
2019-03-13T07:38:16.097Z,2.30
2019-03-13T07:41:04.638Z,2.90
2019-03-13T07:43:56.555Z,2.87
2019-03-13T07:46:44.721Z,2.70
2019-03-13T07:49:49.394Z,3.20
2019-03-13T07:52:37.648Z,3.23
2019-03-13T07:55:17.507Z,2.30
2019-03-13T07:58:00.565Z,2.93
2019-03-13T08:00:55.699Z,3.00
2019-03-13T08:03:44.936Z,2.47
2019-03-13T08:06:43.428Z,2.53
2019-03-13T08:09:24.032Z,2.17
2019-03-13T08:12:12.533Z,2.53
2019-03-13T08:14:55.238Z,2.30
2019-03-13T08:17:31.734Z,2.40
2019-03-13T08:20:13.479Z,1.93
2019-03-13T08:23:02.914Z,2.10
2019-03-13T08:25:41.482Z,2.20
2019-03-13T08:28:29.206Z,1.97
2019-03-13T08:31:14.400Z,1.98
2019-03-13T08:34:05.299Z,2.37
2019-03-13T08:36:57.823Z,1.90
2019-03-13T08:39:58.671Z,1.53
2019-03-13T08:42:52.930Z,1.63
2019-03-13T08:45:40.482Z,1.93
2019-03-13T08:48:31.191Z,1.83
2019-03-13T08:51:26.556Z,1.80
2019-03-13T08:54:18.538Z,1.80
2019-03-13T08:57:07.932Z,2.27
2019-03-13T08:59:45.083Z,2.52
2019-03-13T09:02:44.596Z,1.97
2019-03-13T09:05:32.548Z,2.07
2019-03-13T09:08:31.184Z,2.00
2019-03-13T09:11:20.429Z,2.67
2019-03-13T09:14:12.863Z,2.33
2019-03-13T09:16:52.791Z,2.72
2019-03-13T09:19:42.369Z,3.10
2019-03-13T09:29:45.274Z,2.80
2019-03-13T09:32:33.244Z,2.93
2019-03-13T09:35:14.813Z,2.90
2019-03-13T09:38:03.023Z,3.20
2019-03-13T09:40:45.592Z,2.83
2019-03-13T09:43:36.130Z,3.00
2019-03-13T09:46:19.956Z,3.43
2019-03-13T09:49:21.571Z,2.63
2019-03-13T09:52:16.670Z,2.33
2019-03-13T09:55:04.969Z,2.77
2019-03-13T09:57:53.275Z,3.17
2019-03-13T10:00:51.908Z,2.47
2019-03-13T10:03:33.116Z,2.40
2019-03-13T10:06:25.425Z,2.30
2019-03-13T10:09:17.968Z,2.72
2019-03-13T10:11:59.186Z,2.43
2019-03-13T10:14:37.200Z,2.47
2019-03-13T10:17:32.699Z,2.43
2019-03-13T10:20:20.216Z,2.40
2019-03-13T10:23:18.952Z,1.90
2019-03-13T10:26:00.131Z,2.17
2019-03-13T10:28:52.653Z,2.13
2019-03-13T10:31:42.815Z,2.07
2019-03-13T10:34:32.107Z,2.10
2019-03-13T10:37:18.870Z,2.57
2019-03-13T10:40:05.662Z,2.45
2019-03-13T10:42:50.043Z,2.08
2019-03-13T10:45:26.874Z,2.40
2019-03-13T10:48:03.360Z,2.40
2019-03-13T10:50:58.785Z,2.10
2019-03-13T10:53:51.215Z,1.85
2019-03-13T10:56:40.560Z,2.80
2019-03-13T10:59:34.270Z,2.30
2019-03-13T11:02:39.190Z,2.58
2019-03-13T11:05:21.350Z,2.30
2019-03-13T11:08:05.734Z,2.40
2019-03-13T11:11:00.993Z,2.83
2019-03-13T11:13:56.485Z,2.70
2019-03-13T11:16:47.959Z,2.30
2019-03-13T11:19:45.708Z,2.55
2019-03-13T11:22:25.597Z,2.33
2019-03-13T11:25:03.797Z,2.25
2019-03-13T11:27:53.684Z,2.08
2019-03-13T11:30:40.021Z,2.00
2019-03-13T11:33:29.876Z,2.00
2019-03-13T11:36:28.854Z,2.27
2019-03-13T11:39:19.471Z,2.33
2019-03-13T11:42:08.918Z,2.60
2019-03-13T11:44:56.367Z,2.43
2019-03-13T11:47:54.117Z,2.20
2019-03-13T11:50:35.966Z,2.70
2019-03-13T11:53:13.178Z,2.42
2019-03-13T11:55:50.509Z,2.57
2019-03-13T11:58:55.650Z,2.35
2019-03-13T12:01:45.429Z,2.80
2019-03-13T12:04:38.020Z,2.40
2019-03-13T12:07:33.052Z,2.90
2019-03-13T12:10:18.066Z,3.37
2019-03-13T12:13:29.845Z,3.67
2019-03-13T12:16:04.829Z,2.55
2019-03-13T12:18:48.807Z,2.93
2019-03-13T12:21:37.985Z,3.03
2019-03-13T12:24:39.912Z,2.40
2019-03-13T12:27:44.709Z,2.73
2019-03-13T12:30:33.979Z,2.67
2019-03-13T12:33:35.620Z,2.76
2019-03-13T12:36:30.974Z,2.90
2019-03-13T12:39:32.404Z,3.27
2019-03-13T12:42:24.476Z,2.80
2019-03-13T12:45:14.062Z,2.47
2019-03-13T12:47:51.578Z,2.73
2019-03-13T12:50:52.855Z,2.67
2019-03-13T12:53:57.518Z,3.17
2019-03-13T12:56:49.816Z,3.30
2019-03-13T12:59:35.238Z,2.70
2019-03-13T13:02:19.381Z,2.37
2019-03-13T13:05:03.335Z,2.54
2019-03-13T13:07:43.584Z,2.63
2019-03-13T13:10:26.359Z,3.10
2019-03-13T13:13:18.978Z,3.10
2019-03-13T13:16:14.026Z,2.97
2019-03-13T13:18:54.534Z,2.80
2019-03-13T13:21:24.941Z,3.07
2019-03-13T13:23:56.864Z,2.70
2019-03-13T13:26:27.548Z,2.50
2019-03-13T13:28:59.874Z,2.52
2019-03-13T13:31:30.407Z,2.73
2019-03-13T13:34:01.197Z,2.17
2019-03-13T13:36:31.783Z,2.80
2019-03-13T13:39:03.532Z,2.90
2019-03-13T13:41:35.522Z,2.57
2019-03-13T13:44:06.054Z,3.27
2019-03-13T13:46:39.125Z,3.13
2019-03-13T13:49:10.853Z,3.90
2019-03-13T13:51:41.206Z,3.90
2019-03-13T13:54:11.806Z,2.20
2019-03-13T13:56:42.199Z,2.23
2019-03-13T13:59:12.746Z,2.40
2019-03-13T14:01:43.021Z,2.67
2019-03-13T14:04:13.774Z,3.12
2019-03-13T14:06:44.103Z,2.67
2019-03-13T14:09:14.394Z,3.60
2019-03-13T14:11:44.967Z,7.17
2019-03-13T14:14:15.321Z,10.13
2019-03-13T14:16:45.672Z,10.80
2019-03-13T14:19:16.007Z,7.53
2019-03-13T14:21:47.718Z,4.47
2019-03-13T14:24:18.188Z,4.90
2019-03-13T14:26:50.064Z,6.50
2019-03-13T14:29:21.143Z,7.80
2019-03-13T14:31:52.252Z,5.72
2019-03-13T14:34:22.574Z,5.63
2019-03-13T14:36:53.232Z,4.67
2019-03-13T14:39:23.539Z,6.37
2019-03-13T14:41:54.517Z,4.10
2019-03-13T14:44:24.990Z,3.90
2019-03-13T14:46:55.346Z,3.03
2019-03-13T14:49:26.031Z,2.10
2019-03-13T14:51:56.738Z,1.53
2019-03-13T14:54:28.730Z,0.90
2019-03-13T14:56:59.331Z,1.10
2019-03-13T14:59:30.106Z,1.60
2019-03-13T15:04:40.149Z,2.00
2019-03-13T15:07:10.476Z,3.40
2019-03-13T15:09:40.760Z,7.53
2019-03-13T15:12:11.068Z,7.20
2019-03-13T15:14:45.636Z,5.90
2019-03-13T15:17:17.721Z,3.63
2019-03-13T15:19:48.090Z,2.57
2019-03-13T15:22:18.451Z,2.50
2019-03-13T15:24:50.775Z,2.90
2019-03-13T15:27:21.266Z,2.80
2019-03-13T15:29:51.862Z,2.22
2019-03-13T15:32:22.227Z,2.40
2019-03-13T15:34:53.788Z,1.80
2019-03-13T15:37:24.093Z,1.57
2019-03-13T15:39:54.718Z,1.50
2019-03-13T15:42:25.065Z,1.93
2019-03-13T15:44:57.621Z,1.60
2019-03-13T15:47:27.948Z,1.70
2019-03-13T15:49:58.314Z,1.63
2019-03-13T15:52:28.613Z,1.70
2019-03-13T15:54:58.967Z,1.60
2019-03-13T15:57:29.341Z,1.57
2019-03-13T16:00:00.576Z,1.80
2019-03-13T16:02:31.680Z,1.60
2019-03-13T16:05:02.096Z,1.83
2019-03-13T16:07:32.739Z,1.55
2019-03-13T16:10:03.681Z,1.50
2019-03-13T16:12:34.440Z,1.60
2019-03-13T16:15:05.671Z,1.40
2019-03-13T16:17:38.048Z,1.50
2019-03-13T16:20:09.431Z,1.30
2019-03-13T16:22:41.798Z,1.30
2019-03-13T16:25:12.455Z,1.25
2019-03-13T16:27:43.346Z,1.53
2019-03-13T16:30:18.675Z,1.10
2019-03-13T16:32:49.077Z,1.30
2019-03-13T16:35:19.686Z,1.20
2019-03-13T16:37:54.210Z,1.47
2019-03-13T16:40:24.943Z,1.50
2019-03-13T16:42:55.242Z,1.40
2019-03-13T16:45:26.080Z,1.40
2019-03-13T16:47:57.818Z,1.33
2019-03-13T16:50:28.414Z,1.40
2019-03-13T16:52:59.254Z,1.60
2019-03-13T16:55:31.171Z,1.30
2019-03-13T17:00:39.779Z,1.80
2019-03-13T17:03:10.248Z,1.80
2019-03-13T17:05:40.680Z,1.40
2019-03-13T17:08:11.404Z,1.90
2019-03-13T17:10:41.739Z,2.00
2019-03-13T17:13:12.169Z,2.70
2019-03-13T17:15:42.546Z,2.13
2019-03-13T17:18:12.941Z,1.90
2019-03-13T17:20:43.362Z,2.20
2019-03-13T17:23:13.987Z,2.00
2019-03-13T17:25:44.629Z,2.80
2019-03-13T17:28:15.225Z,6.70
2019-03-13T17:30:46.631Z,11.40
2019-03-13T17:33:17.861Z,11.60
2019-03-13T17:35:49.610Z,6.20
2019-03-13T17:38:21.641Z,7.87
2019-03-13T17:40:53.680Z,7.77
2019-03-13T17:43:23.977Z,6.57
2019-03-13T17:45:54.339Z,6.20
2019-03-13T17:48:24.753Z,5.83
2019-03-13T17:50:55.442Z,7.42
2019-03-13T17:53:25.854Z,4.70
2019-03-13T17:55:56.268Z,3.57
2019-03-13T17:58:26.707Z,3.23
2019-03-13T18:00:57.526Z,2.90
2019-03-13T18:03:27.931Z,2.63
2019-03-13T18:06:00.648Z,2.72
2019-03-13T18:08:31.081Z,2.60
2019-03-13T18:11:01.817Z,2.63
2019-03-13T18:13:33.236Z,3.40
2019-03-13T18:16:05.491Z,2.83
2019-03-13T18:18:36.527Z,3.27
2019-03-13T18:21:08.628Z,3.85
2019-03-13T18:23:39.291Z,3.67
2019-03-13T18:26:11.142Z,4.37
2019-03-13T18:28:43.395Z,5.80
2019-03-13T18:31:13.768Z,8.63
2019-03-13T18:33:44.440Z,6.28
2019-03-13T18:36:16.355Z,7.87
2019-03-13T18:38:47.900Z,5.33
2019-03-13T18:41:18.835Z,4.57
2019-03-13T18:43:49.283Z,3.73
2019-03-13T18:46:19.692Z,3.30
2019-03-13T18:48:50.555Z,3.10
2019-03-13T18:51:21.190Z,3.80
2019-03-13T18:53:51.683Z,3.60
2019-03-13T18:56:23.458Z,2.93
2019-03-13T18:58:54.081Z,3.70
2019-03-13T19:01:24.902Z,3.77
2019-03-13T19:03:55.236Z,3.33
2019-03-13T19:06:27.303Z,3.60
2019-03-13T19:08:58.812Z,3.40
2019-03-13T19:11:31.586Z,3.30
2019-03-13T19:14:01.955Z,2.93
2019-03-13T19:16:33.724Z,3.90
2019-03-13T19:19:04.317Z,3.70
2019-03-13T19:21:34.812Z,3.47
2019-03-13T19:24:05.279Z,3.70
2019-03-13T19:26:35.723Z,2.90
2019-03-13T19:29:06.205Z,3.50
2019-03-13T19:31:36.607Z,3.70
2019-03-13T19:34:09.159Z,3.15
2019-03-13T19:36:39.735Z,2.80
2019-03-13T19:39:10.320Z,2.70
2019-03-13T19:41:41.728Z,3.17
2019-03-13T19:44:12.105Z,2.90
2019-03-13T19:46:43.872Z,3.22
2019-03-13T19:49:14.301Z,2.47
2019-03-13T19:51:44.693Z,2.80
2019-03-13T19:54:17.287Z,2.08
2019-03-13T19:56:47.670Z,2.70
2019-03-13T19:59:20.844Z,2.04
2019-03-13T20:01:51.354Z,2.40
2019-03-13T20:04:21.906Z,2.27
2019-03-13T20:06:52.324Z,1.80
2019-03-13T20:11:58.866Z,1.90
2019-03-13T20:14:33.619Z,1.95
2019-03-13T20:17:04.455Z,2.30
2019-03-13T20:19:37.321Z,2.15
2019-03-13T20:22:08.892Z,2.00
2019-03-13T20:24:39.449Z,2.63
2019-03-13T20:27:10.190Z,2.30
2019-03-13T20:29:40.595Z,2.67
2019-03-13T20:37:40.670Z,2.50
2019-03-13T20:40:14.515Z,2.93
2019-03-13T20:42:45.147Z,3.47
2019-03-13T20:45:23.086Z,2.80
2019-03-13T20:47:54.858Z,2.17
2019-03-13T20:50:35.698Z,2.37
2019-03-13T20:52:59.348Z,2.30
2019-03-13T20:55:29.758Z,3.30
2019-03-13T20:58:00.397Z,4.23
2019-03-13T21:00:34.524Z,4.77
2019-03-13T21:03:04.272Z,4.80
2019-03-13T21:05:35.036Z,7.07
2019-03-13T21:08:05.771Z,6.83
2019-03-13T21:10:38.445Z,6.70
2019-03-13T21:13:08.670Z,4.77
2019-03-13T21:15:39.513Z,3.42
2019-03-13T21:18:11.513Z,3.87
2019-03-13T21:20:41.887Z,3.20
2019-03-13T21:23:12.231Z,2.90
2019-03-13T21:25:42.848Z,3.37
2019-03-13T21:30:49.524Z,3.05
2019-03-13T21:33:24.015Z,2.90
2019-03-13T21:35:53.695Z,2.60
2019-03-13T21:38:24.586Z,2.50
2019-03-13T21:40:55.175Z,2.80
2019-03-13T21:43:27.866Z,2.47
2019-03-13T21:45:58.528Z,2.40
2019-03-13T21:48:28.951Z,2.07
2019-03-13T21:50:59.980Z,2.67
2019-03-13T21:53:30.333Z,3.07
2019-03-13T21:56:02.941Z,2.20
2019-03-13T21:58:34.752Z,1.92
2019-03-13T22:01:05.726Z,2.02
2019-03-13T22:03:36.010Z,2.27
2019-03-13T22:06:06.509Z,2.67
2019-03-13T22:08:38.035Z,2.20
2019-03-13T22:11:08.666Z,2.62
2019-03-13T22:13:39.094Z,1.87
2019-03-13T22:16:10.032Z,2.13
2019-03-13T22:18:40.356Z,1.90
2019-03-13T22:21:12.636Z,2.02
2019-03-13T22:23:43.073Z,1.97
2019-03-13T22:26:14.523Z,2.02
2019-03-13T22:28:44.869Z,2.40
2019-03-13T22:31:15.499Z,1.90
2019-03-13T22:33:45.816Z,2.43
2019-03-13T22:36:17.559Z,2.17
2019-03-13T22:38:47.848Z,2.30
2019-03-13T22:41:19.442Z,2.30
2019-03-13T22:43:50.181Z,1.97
2019-03-13T22:46:20.689Z,1.90
2019-03-13T22:48:58.262Z,1.52
2019-03-13T22:51:23.067Z,1.80
2019-03-13T22:53:53.634Z,1.62
2019-03-13T22:56:25.624Z,1.50
2019-03-13T22:58:55.925Z,1.40
2019-03-13T23:01:27.013Z,1.50
2019-03-13T23:03:57.976Z,1.37
2019-03-13T23:06:28.680Z,1.33
2019-03-13T23:08:59.438Z,1.30
2019-03-13T23:11:29.967Z,1.73
2019-03-13T23:14:00.881Z,1.60
2019-03-13T23:16:34.173Z,1.37
2019-03-13T23:19:05.970Z,1.70
2019-03-13T23:21:36.252Z,2.03
2019-03-13T23:24:07.773Z,1.93
2019-03-13T23:26:38.074Z,1.60
2019-03-13T23:29:10.307Z,1.80
2019-03-13T23:31:40.667Z,1.77
2019-03-13T23:34:10.956Z,1.90
2019-03-13T23:36:41.279Z,1.70
2019-03-13T23:39:12.432Z,1.60
2019-03-13T23:41:43.406Z,1.52
2019-03-13T23:44:13.715Z,1.87
2019-03-13T23:46:45.966Z,1.65
2019-03-13T23:49:16.357Z,1.70
2019-03-13T23:51:46.981Z,1.67
2019-03-13T23:54:17.444Z,1.83
2019-03-13T23:56:48.158Z,1.83
2019-03-13T23:59:18.459Z,1.83
